createdAt,value
2016-09-24T00:00:49.895Z,96.51
2016-09-24T00:01:49.870Z,96.7
2016-09-24T00:02:49.850Z,96.89
2016-09-24T00:03:49.850Z,96.89
2016-09-24T00:04:49.817Z,96.89
2016-09-24T00:05:49.856Z,96.7
2016-09-24T00:06:49.786Z,96.99
2016-09-24T00:07:49.770Z,96.37
2016-09-24T00:08:49.747Z,96.66
2016-09-24T00:09:49.417Z,96.56
2016-09-24T00:10:49.716Z,96.47
2016-09-24T00:11:49.801Z,97.18
2016-09-24T00:12:49.368Z,97.23
2016-09-24T00:13:49.674Z,98.28
2016-09-24T00:14:49.658Z,98.38
2016-09-24T00:15:49.630Z,99.62
2016-09-24T00:16:49.309Z,99.99
2016-09-24T00:17:49.595Z,99.99
2016-09-24T00:18:49.577Z,99.99
2016-09-24T00:19:49.575Z,99.99
2016-09-24T00:20:49.558Z,99.99
2016-09-24T00:21:49.533Z,99.99
2016-09-24T00:22:49.191Z,99.99
2016-09-24T00:23:49.190Z,99.76
2016-09-24T00:24:49.491Z,99
2016-09-24T00:25:49.466Z,99.38
2016-09-24T00:26:49.454Z,99.29
2016-09-24T00:27:49.444Z,99
2016-09-24T00:28:49.110Z,99.76
2016-09-24T00:29:49.399Z,99.57
2016-09-24T00:30:49.067Z,99.38
2016-09-24T00:31:49.371Z,99.29
2016-09-24T00:32:49.034Z,99.19
2016-09-24T00:33:49.337Z,99.38
2016-09-24T00:34:49.324Z,99.38
2016-09-24T00:35:49.298Z,98.71
2016-09-24T00:36:48.969Z,98.71
2016-09-24T00:37:49.263Z,98.52
2016-09-24T00:38:48.932Z,98.66
2016-09-24T00:39:49.238Z,98.19
2016-09-24T00:40:49.219Z,98.19
2016-09-24T00:41:49.196Z,98.95
2016-09-24T00:42:49.180Z,98.86
2016-09-24T00:43:49.160Z,98.9
2016-09-24T00:44:49.157Z,99.38
2016-09-24T00:45:48.809Z,99.86
2016-09-24T00:46:49.110Z,99.76
2016-09-24T00:47:49.102Z,99.76
2016-09-24T00:48:49.074Z,99.76
2016-09-24T00:49:49.071Z,99.67
2016-09-24T00:50:49.053Z,99.76
2016-09-24T00:51:49.041Z,99.99
2016-09-24T00:52:49.023Z,99.99
2016-09-24T00:53:49.012Z,99.99
2016-09-24T00:54:48.983Z,99.99
2016-09-24T00:55:48.961Z,99.99
2016-09-24T00:56:48.964Z,99.86
2016-09-24T00:57:48.940Z,99.99
2016-09-24T00:58:48.971Z,99.99
2016-09-24T00:59:48.902Z,99.99
2016-09-24T01:00:48.893Z,99.99
2016-09-24T01:01:48.543Z,99.99
2016-09-24T01:02:48.862Z,99.57
2016-09-24T01:03:48.832Z,99.57
2016-09-24T01:04:48.816Z,99.19
2016-09-24T01:05:48.804Z,99.38
2016-09-24T01:06:48.793Z,99.19
2016-09-24T01:07:48.769Z,99.19
2016-09-24T01:08:48.743Z,99.76
2016-09-24T01:09:48.413Z,99.86
2016-09-24T01:10:48.390Z,99.96
2016-09-24T01:11:48.703Z,99.86
2016-09-24T01:12:48.683Z,99.99
2016-09-24T01:13:48.338Z,99.99
2016-09-24T01:14:48.323Z,99.99
2016-09-24T01:15:48.314Z,99.86
2016-09-24T01:16:48.626Z,99.99
2016-09-24T01:17:48.634Z,99.76
2016-09-24T01:18:48.254Z,99.57
2016-09-24T01:19:48.563Z,99.38
2016-09-24T01:20:48.541Z,99.19
2016-09-24T01:21:48.550Z,98.9
2016-09-24T01:22:48.513Z,98.9
2016-09-24T01:23:48.179Z,98.9
2016-09-24T01:24:48.488Z,98.9
2016-09-24T01:25:48.464Z,98.71
2016-09-24T01:26:48.455Z,98.43
2016-09-24T01:27:48.438Z,98.57
2016-09-24T01:28:48.089Z,98.19
2016-09-24T01:29:48.076Z,99.1
2016-09-24T01:30:48.379Z,98.81
2016-09-24T01:31:48.363Z,98.04
2016-09-24T01:32:48.346Z,97.85
2016-09-24T01:33:48.330Z,98.09
2016-09-24T01:34:48.310Z,98
2016-09-24T01:35:48.285Z,98
2016-09-24T01:36:48.274Z,98.09
2016-09-24T01:37:48.264Z,98.43
2016-09-24T01:38:48.249Z,98.28
2016-09-24T01:39:47.903Z,98.04
2016-09-24T01:40:48.220Z,98.38
2016-09-24T01:41:47.870Z,98.19
2016-09-24T01:42:48.193Z,98.47
2016-09-24T01:43:48.160Z,98.52
2016-09-24T01:44:48.148Z,98.61
2016-09-24T01:45:48.127Z,98.43
2016-09-24T01:46:48.117Z,98.61
2016-09-24T01:47:47.778Z,98.14
2016-09-24T01:48:48.081Z,98.52
2016-09-24T01:49:47.741Z,98.71
2016-09-24T01:50:48.049Z,98.71
2016-09-24T01:51:48.027Z,98.71
2016-09-24T01:52:48.005Z,99.38
2016-09-24T01:53:47.988Z,99.29
2016-09-24T01:54:47.978Z,99.19
2016-09-24T01:55:47.954Z,99.48
2016-09-24T01:56:47.938Z,99.1
2016-09-24T01:57:47.922Z,99.38
2016-09-24T01:58:47.588Z,99.67
2016-09-24T01:59:47.890Z,99.99
2016-09-24T02:00:47.561Z,99.99
2016-09-24T02:01:47.861Z,99.99
2016-09-24T02:02:47.851Z,99.62
2016-09-24T02:03:47.498Z,99.99
2016-09-24T02:04:47.811Z,99.99
2016-09-24T02:05:47.801Z,99.99
2016-09-24T02:06:47.779Z,99.99
2016-09-24T02:07:47.824Z,99.99
2016-09-24T02:08:47.737Z,99.99
2016-09-24T02:09:47.722Z,99.99
2016-09-24T02:10:47.712Z,99.99
2016-09-24T02:11:47.689Z,99.99
2016-09-24T02:12:47.667Z,99.99
2016-09-24T02:13:47.331Z,99.99
2016-09-24T02:14:47.645Z,99.99
2016-09-24T02:15:47.617Z,99.99
2016-09-24T02:16:47.600Z,99.99
2016-09-24T02:17:47.268Z,99.99
2016-09-24T02:18:47.252Z,99.99
2016-09-24T02:19:47.231Z,99.99
2016-09-24T02:20:47.209Z,99.99
2016-09-24T02:21:47.513Z,99.99
2016-09-24T02:22:47.502Z,99.99
2016-09-24T02:23:47.482Z,99.99
2016-09-24T02:24:47.473Z,99.99
2016-09-24T02:25:47.453Z,99.99
2016-09-24T02:26:47.102Z,99.99
2016-09-24T02:27:47.419Z,99.99
2016-09-24T02:28:47.389Z,99.99
2016-09-24T02:29:47.391Z,99.99
2016-09-24T02:30:47.357Z,99.99
2016-09-24T02:31:47.019Z,99.99
2016-09-24T02:32:47.325Z,99.99
2016-09-24T02:33:47.307Z,99.99
2016-09-24T02:34:47.289Z,99.99
2016-09-24T02:35:47.287Z,99.99
2016-09-24T02:36:47.312Z,99.99
2016-09-24T02:37:46.911Z,99.99
2016-09-24T02:38:47.441Z,99.99
2016-09-24T02:39:46.871Z,99.99
2016-09-24T02:40:46.872Z,99.99
2016-09-24T02:41:47.161Z,99.99
2016-09-24T02:42:47.144Z,99.99
2016-09-24T02:43:47.129Z,99.99
2016-09-24T02:44:47.111Z,99.99
2016-09-24T02:45:47.098Z,99.99
2016-09-24T02:46:47.079Z,99.99
2016-09-24T02:47:46.737Z,99.99
2016-09-24T02:48:46.718Z,99.99
2016-09-24T02:49:47.015Z,99.99
2016-09-24T02:50:46.998Z,99.99
2016-09-24T02:51:46.988Z,99.99
2016-09-24T02:52:46.649Z,99.99
2016-09-24T02:53:46.949Z,99.99
2016-09-24T02:54:46.931Z,99.99
2016-09-24T02:55:46.590Z,99.99
2016-09-24T02:56:46.898Z,99.99
2016-09-24T02:57:46.877Z,99.99
2016-09-24T02:58:46.861Z,99.99
2016-09-24T02:59:46.845Z,99.99
2016-09-24T03:00:46.508Z,99.99
2016-09-24T03:01:46.810Z,99.99
2016-09-24T03:02:46.790Z,99.99
2016-09-24T03:03:46.776Z,99.99
2016-09-24T03:04:46.758Z,99.99
2016-09-24T03:05:46.740Z,99.99
2016-09-24T03:06:46.720Z,99.99
2016-09-24T03:07:46.718Z,99.99
2016-09-24T03:08:46.362Z,99.99
2016-09-24T03:09:46.662Z,99.99
2016-09-24T03:10:46.652Z,99.99
2016-09-24T03:11:46.651Z,99.99
2016-09-24T03:12:46.622Z,99.99
2016-09-24T03:13:46.602Z,99.99
2016-09-24T03:14:46.248Z,99.99
2016-09-24T03:15:46.571Z,99.99
2016-09-24T03:16:46.536Z,99.99
2016-09-24T03:17:46.520Z,99.99
2016-09-24T03:18:46.509Z,99.99
2016-09-24T03:19:46.497Z,99.99
2016-09-24T03:20:46.561Z,99.99
2016-09-24T03:21:46.561Z,99.99
2016-09-24T03:22:46.435Z,99.99
2016-09-24T03:23:46.090Z,99.99
2016-09-24T03:24:46.068Z,99.99
2016-09-24T03:25:46.392Z,99.99
2016-09-24T03:26:46.364Z,99.99
2016-09-24T03:27:46.352Z,99.99
2016-09-24T03:28:46.002Z,99.99
2016-09-24T03:29:46.437Z,99.99
2016-09-24T03:30:46.312Z,99.99
2016-09-24T03:31:46.274Z,99.99
2016-09-24T03:32:45.940Z,99.99
2016-09-24T03:33:46.238Z,99.99
2016-09-24T03:34:46.229Z,99.99
2016-09-24T03:35:46.216Z,99.99
2016-09-24T03:36:46.182Z,99.99
2016-09-24T03:37:46.158Z,99.99
2016-09-24T03:38:46.150Z,99.99
2016-09-24T03:39:46.138Z,99.99
2016-09-24T03:40:45.788Z,99.99
2016-09-24T03:41:45.776Z,99.99
2016-09-24T03:42:45.750Z,99.99
2016-09-24T03:43:46.066Z,99.99
2016-09-24T03:44:46.037Z,99.99
2016-09-24T03:45:45.703Z,99.99
2016-09-24T03:46:45.692Z,99.99
2016-09-24T03:47:45.986Z,99.99
2016-09-24T03:48:45.981Z,99.99
2016-09-24T03:49:45.947Z,99.99
2016-09-24T03:50:46.012Z,99.99
2016-09-24T03:51:45.908Z,99.99
2016-09-24T03:52:46.001Z,99.99
2016-09-24T03:53:45.552Z,99.99
2016-09-24T03:54:45.927Z,99.99
2016-09-24T03:55:45.846Z,99.99
2016-09-24T03:56:45.829Z,99.99
2016-09-24T03:57:45.812Z,99.99
2016-09-24T03:58:45.470Z,99.99
2016-09-24T03:59:45.775Z,99.99
2016-09-24T04:00:45.758Z,99.99
2016-09-24T04:01:45.743Z,99.99
2016-09-24T04:02:45.764Z,99.99
2016-09-24T04:03:45.706Z,99.99
2016-09-24T04:04:45.364Z,99.99
2016-09-24T04:05:45.663Z,99.99
2016-09-24T04:06:45.645Z,99.99
2016-09-24T04:07:45.632Z,99.99
2016-09-24T04:08:45.292Z,99.99
2016-09-24T04:09:45.601Z,99.99
2016-09-24T04:10:45.576Z,99.99
2016-09-24T04:11:45.563Z,99.99
2016-09-24T04:12:45.538Z,99.99
2016-09-24T04:13:45.533Z,99.99
2016-09-24T04:14:45.518Z,99.99
2016-09-24T04:15:45.491Z,99.99
2016-09-24T04:16:45.145Z,99.99
2016-09-24T04:17:45.460Z,99.99
2016-09-24T04:18:45.440Z,99.99
2016-09-24T04:19:45.421Z,99.99
2016-09-24T04:20:45.074Z,99.99
2016-09-24T04:21:45.386Z,99.99
2016-09-24T04:22:45.047Z,99.99
2016-09-24T04:23:45.351Z,99.99
2016-09-24T04:24:45.003Z,99.99
2016-09-24T04:25:44.987Z,99.99
2016-09-24T04:26:45.296Z,99.99
2016-09-24T04:27:45.278Z,99.99
2016-09-24T04:28:45.256Z,99.99
2016-09-24T04:29:45.242Z,99.99
2016-09-24T04:30:45.238Z,99.99
2016-09-24T04:31:45.214Z,99.99
2016-09-24T04:32:44.869Z,99.99
2016-09-24T04:33:45.161Z,99.99
2016-09-24T04:34:44.830Z,99.99
2016-09-24T04:35:44.811Z,99.99
2016-09-24T04:36:45.111Z,99.99
2016-09-24T04:37:45.102Z,99.99
2016-09-24T04:38:45.080Z,99.99
2016-09-24T04:39:45.066Z,99.99
2016-09-24T04:40:45.044Z,99.99
2016-09-24T04:41:45.030Z,99.99
2016-09-24T04:42:45.001Z,99.99
2016-09-24T04:43:44.674Z,99.99
2016-09-24T04:44:44.649Z,99.99
2016-09-24T04:45:44.960Z,99.99
2016-09-24T04:46:44.935Z,99.99
2016-09-24T04:47:44.931Z,99.99
2016-09-24T04:48:44.588Z,99.99
2016-09-24T04:49:44.906Z,99.99
2016-09-24T04:50:44.869Z,99.99
2016-09-24T04:51:44.893Z,99.99
2016-09-24T04:52:44.831Z,99.99
2016-09-24T04:53:44.843Z,99.99
2016-09-24T04:54:44.793Z,99.99
2016-09-24T04:55:44.499Z,99.99
2016-09-24T04:56:44.435Z,99.99
2016-09-24T04:57:44.740Z,99.99
2016-09-24T04:58:44.720Z,99.99
2016-09-24T04:59:44.806Z,99.99
2016-09-24T05:00:44.684Z,99.99
2016-09-24T05:01:44.720Z,99.99
2016-09-24T05:02:44.719Z,99.99
2016-09-24T05:03:44.409Z,99.99
2016-09-24T05:04:44.307Z,99.99
2016-09-24T05:05:44.624Z,99.99
2016-09-24T05:06:44.577Z,99.99
2016-09-24T05:07:44.577Z,99.99
2016-09-24T05:08:44.534Z,99.99
2016-09-24T05:09:44.529Z,99.99
2016-09-24T05:10:44.587Z,99.99
2016-09-24T05:11:44.180Z,99.99
2016-09-24T05:12:44.529Z,99.99
2016-09-24T05:13:44.457Z,99.99
2016-09-24T05:14:44.116Z,99.99
2016-09-24T05:15:44.522Z,99.99
2016-09-24T05:16:44.399Z,99.99
2016-09-24T05:17:44.166Z,99.99
2016-09-24T05:18:44.364Z,99.99
2016-09-24T05:19:44.394Z,99.99
2016-09-24T05:20:44.324Z,99.99
2016-09-24T05:21:44.321Z,99.99
2016-09-24T05:22:44.299Z,99.99
2016-09-24T05:23:44.363Z,99.99
2016-09-24T05:24:44.351Z,99.99
2016-09-24T05:25:44.235Z,99.99
2016-09-24T05:26:44.276Z,99.99
2016-09-24T05:27:43.878Z,99.99
2016-09-24T05:28:44.222Z,99.99
2016-09-24T05:29:43.840Z,99.99
2016-09-24T05:30:44.195Z,99.99
2016-09-24T05:31:44.121Z,99.99
2016-09-24T05:32:44.115Z,99.99
2016-09-24T05:33:44.087Z,99.99
2016-09-24T05:34:44.086Z,99.99
2016-09-24T05:35:43.735Z,99.99
2016-09-24T05:36:43.710Z,99.99
2016-09-24T05:37:44.012Z,99.99
2016-09-24T05:38:44.039Z,99.99
2016-09-24T05:39:43.660Z,99.99
2016-09-24T05:40:43.961Z,99.99
2016-09-24T05:41:43.943Z,99.99
2016-09-24T05:42:44.006Z,99.99
2016-09-24T05:43:43.916Z,99.99
2016-09-24T05:44:43.567Z,99.99
2016-09-24T05:45:43.862Z,99.99
2016-09-24T05:46:43.857Z,99.99
2016-09-24T05:47:43.836Z,99.99
2016-09-24T05:48:43.824Z,99.99
2016-09-24T05:49:43.808Z,99.99
2016-09-24T05:50:43.452Z,99.99
2016-09-24T05:51:43.447Z,99.99
2016-09-24T05:52:43.753Z,99.99
2016-09-24T05:53:43.400Z,99.99
2016-09-24T05:54:43.706Z,99.99
2016-09-24T05:55:43.695Z,99.99
2016-09-24T05:56:43.354Z,99.99
2016-09-24T05:57:43.666Z,99.99
2016-09-24T05:58:43.317Z,99.99
2016-09-24T05:59:43.296Z,99.99
2016-09-24T06:00:43.601Z,99.99
2016-09-24T06:01:43.592Z,99.99
2016-09-24T06:02:43.575Z,99.99
2016-09-24T06:03:43.553Z,99.99
2016-09-24T06:04:43.533Z,99.99
2016-09-24T06:05:43.516Z,99.99
2016-09-24T06:06:43.492Z,99.99
2016-09-24T06:07:43.483Z,99.99
2016-09-24T06:08:43.131Z,99.99
2016-09-24T06:09:43.442Z,99.99
2016-09-24T06:10:43.425Z,99.99
2016-09-24T06:11:43.416Z,99.99
2016-09-24T06:12:43.385Z,99.99
2016-09-24T06:13:43.364Z,99.99
2016-09-24T06:14:43.351Z,99.99
2016-09-24T06:15:43.325Z,99.99
2016-09-24T06:16:43.325Z,99.99
2016-09-24T06:17:42.971Z,99.99
2016-09-24T06:18:42.965Z,99.99
2016-09-24T06:19:43.264Z,99.99
2016-09-24T06:20:43.249Z,99.99
2016-09-24T06:21:42.897Z,99.99
2016-09-24T06:22:43.213Z,99.99
2016-09-24T06:23:42.875Z,99.99
2016-09-24T06:24:43.175Z,99.99
2016-09-24T06:25:42.835Z,99.99
2016-09-24T06:26:43.163Z,99.99
2016-09-24T06:27:43.117Z,99.99
2016-09-24T06:28:43.097Z,99.99
2016-09-24T06:29:43.081Z,99.99
2016-09-24T06:30:43.071Z,99.99
2016-09-24T06:31:43.065Z,99.99
2016-09-24T06:32:43.031Z,99.99
2016-09-24T06:33:43.008Z,99.99
2016-09-24T06:34:42.683Z,99.99
2016-09-24T06:35:42.985Z,99.99
2016-09-24T06:36:42.977Z,99.99
2016-09-24T06:37:42.950Z,99.99
2016-09-24T06:38:42.923Z,99.99
2016-09-24T06:39:42.583Z,99.99
2016-09-24T06:40:42.571Z,99.99
2016-09-24T06:41:42.885Z,99.99
2016-09-24T06:42:42.542Z,99.99
2016-09-24T06:43:42.841Z,99.99
2016-09-24T06:44:42.502Z,99.24
2016-09-24T06:45:42.495Z,99.99
2016-09-24T06:46:42.793Z,99
2016-09-24T06:47:42.795Z,98.09
2016-09-24T06:48:42.753Z,97.38
2016-09-24T06:49:42.751Z,96.75
2016-09-24T06:50:42.407Z,97.18
2016-09-24T06:51:42.719Z,98.43
2016-09-24T06:52:42.395Z,98.14
2016-09-24T06:53:42.356Z,98.91
2016-09-24T06:54:42.666Z,99.43
2016-09-24T06:55:42.792Z,99.99
2016-09-24T06:56:42.625Z,99.99
2016-09-24T06:57:42.615Z,99.99
2016-09-24T06:58:42.593Z,99.99
2016-09-24T06:59:42.595Z,99.99
2016-09-24T07:00:42.558Z,99.99
2016-09-24T07:01:42.556Z,99.99
2016-09-24T07:02:42.525Z,99.99
2016-09-24T07:03:42.505Z,99.99
2016-09-24T07:04:42.494Z,99.99
2016-09-24T07:05:42.472Z,99.99
2016-09-24T07:06:42.460Z,99.99
2016-09-24T07:07:42.441Z,99.99
2016-09-24T07:08:42.423Z,99.99
2016-09-24T07:09:42.402Z,99.43
2016-09-24T07:10:42.383Z,97.56
2016-09-24T07:11:42.369Z,95.6
2016-09-24T07:12:42.355Z,92.54
2016-09-24T07:13:42.344Z,90.66
2016-09-24T07:14:42.001Z,89.84
2016-09-24T07:15:42.312Z,88.49
2016-09-24T07:16:41.968Z,88.25
2016-09-24T07:17:42.271Z,87.24
2016-09-24T07:18:42.264Z,86.91
2016-09-24T07:19:41.921Z,85.71
2016-09-24T07:20:41.915Z,84.88
2016-09-24T07:21:42.212Z,83.48
2016-09-24T07:22:42.197Z,83.72
2016-09-24T07:23:42.194Z,83.39
2016-09-24T07:24:41.902Z,83.04
2016-09-24T07:25:42.152Z,83.09
2016-09-24T07:26:42.143Z,83.48
2016-09-24T07:27:41.814Z,84.06
2016-09-24T07:28:42.115Z,84.88
2016-09-24T07:29:42.103Z,86.47
2016-09-24T07:30:41.763Z,87.15
2016-09-24T07:31:42.081Z,88.25
2016-09-24T07:32:42.056Z,88.45
2016-09-24T07:33:42.045Z,87.77
2016-09-24T07:34:42.041Z,87.05
2016-09-24T07:35:42.022Z,86.95
2016-09-24T07:36:42.012Z,85.55
2016-09-24T07:37:41.685Z,84.06
2016-09-24T07:38:41.999Z,83.23
2016-09-24T07:39:41.658Z,81.73
2016-09-24T07:40:41.983Z,80.77
2016-09-24T07:41:41.963Z,80.52
2016-09-24T07:42:41.621Z,82.35
2016-09-24T07:43:41.956Z,82.21
2016-09-24T07:44:41.933Z,81.35
2016-09-24T07:45:41.925Z,83.28
2016-09-24T07:46:41.592Z,83.14
2016-09-24T07:47:41.914Z,81.93
2016-09-24T07:48:41.891Z,81.77
2016-09-24T07:49:41.556Z,79.31
2016-09-24T07:50:41.871Z,77.46
2016-09-24T07:51:41.557Z,75.47
2016-09-24T07:52:41.535Z,74.44
2016-09-24T07:53:41.527Z,74.38
2016-09-24T07:54:41.513Z,75.09
2016-09-24T07:55:41.894Z,74.48
2016-09-24T07:56:41.514Z,73.22
2016-09-24T07:57:41.827Z,71.66
2016-09-24T07:58:41.496Z,70.34
2016-09-24T07:59:41.810Z,69.21
2016-09-24T08:00:41.807Z,68.27
2016-09-24T08:01:41.798Z,67.92
2016-09-24T08:02:41.788Z,68.66
2016-09-24T08:03:41.784Z,72.33
2016-09-24T08:04:41.783Z,74.58
2016-09-24T08:05:41.454Z,74.99
2016-09-24T08:06:41.773Z,75.02
2016-09-24T08:07:41.775Z,74.44
2016-09-24T08:08:41.767Z,72.49
2016-09-24T08:09:41.764Z,71.94
2016-09-24T08:10:41.752Z,72.46
2016-09-24T08:11:41.769Z,72.78
2016-09-24T08:12:41.425Z,74.19
2016-09-24T08:13:41.427Z,72.39
2016-09-24T08:14:41.738Z,74.81
2016-09-24T08:15:41.416Z,76.24
2016-09-24T08:16:41.409Z,76.24
2016-09-24T08:17:41.395Z,75.47
2016-09-24T08:18:41.729Z,75.22
2016-09-24T08:19:41.708Z,74.73
2016-09-24T08:20:41.698Z,73.13
2016-09-24T08:21:41.695Z,74.1
2016-09-24T08:22:41.700Z,74.96
2016-09-24T08:23:41.680Z,76.18
2016-09-24T08:24:41.688Z,74.73
2016-09-24T08:25:41.674Z,73.55
2016-09-24T08:26:41.670Z,72.24
2016-09-24T08:27:41.675Z,70.82
2016-09-24T08:28:41.657Z,69.98
2016-09-24T08:29:41.358Z,69.89
2016-09-24T08:30:41.651Z,68.02
2016-09-24T08:31:41.645Z,67.76
2016-09-24T08:32:41.335Z,69.12
2016-09-24T08:33:41.325Z,69.34
2016-09-24T08:34:41.630Z,68.89
2016-09-24T08:35:41.631Z,69.43
2016-09-24T08:36:41.636Z,69.4
2016-09-24T08:37:41.312Z,68.5
2016-09-24T08:38:41.639Z,66.89
2016-09-24T08:39:41.309Z,65.98
2016-09-24T08:40:41.615Z,65.53
2016-09-24T08:41:41.316Z,65.59
2016-09-24T08:42:41.288Z,65.14
2016-09-24T08:43:41.294Z,65.43
2016-09-24T08:44:41.288Z,67.5
2016-09-24T08:45:41.600Z,67.02
2016-09-24T08:46:41.604Z,68.08
2016-09-24T08:47:41.608Z,68.12
2016-09-24T08:48:41.604Z,66.99
2016-09-24T08:49:41.595Z,65.72
2016-09-24T08:50:41.275Z,66.05
2016-09-24T08:51:41.589Z,65.4
2016-09-24T08:52:41.585Z,64.56
2016-09-24T08:53:41.258Z,63.62
2016-09-24T08:54:41.258Z,63.17
2016-09-24T08:55:41.594Z,63.81
2016-09-24T08:56:41.249Z,63.88
2016-09-24T08:57:41.245Z,64.11
2016-09-24T08:58:41.568Z,63.65
2016-09-24T08:59:41.559Z,64.69
2016-09-24T09:00:41.565Z,64.04
2016-09-24T09:01:41.559Z,64.11
2016-09-24T09:02:41.566Z,63.94
2016-09-24T09:03:41.241Z,63.45
2016-09-24T09:04:41.554Z,63.26
2016-09-24T09:05:41.232Z,63.17
2016-09-24T09:06:41.550Z,62.32
2016-09-24T09:07:41.549Z,63.13
2016-09-24T09:08:41.245Z,65.47
2016-09-24T09:09:41.547Z,65.43
2016-09-24T09:10:41.221Z,64.49
2016-09-24T09:11:41.228Z,64.14
2016-09-24T09:12:41.222Z,63.36
2016-09-24T09:13:41.221Z,63.49
2016-09-24T09:14:41.537Z,63.65
2016-09-24T09:15:41.209Z,64.91
2016-09-24T09:16:41.536Z,65.72
2016-09-24T09:17:41.205Z,64.56
2016-09-24T09:18:41.216Z,65.5
2016-09-24T09:19:41.523Z,66.76
2016-09-24T09:20:41.519Z,70.76
2016-09-24T09:21:41.206Z,70.18
2016-09-24T09:22:41.513Z,68.3
2016-09-24T09:23:41.520Z,67.95
2016-09-24T09:24:41.519Z,66.82
2016-09-24T09:25:41.185Z,67.47
2016-09-24T09:26:41.510Z,69.12
2016-09-24T09:27:41.520Z,69.18
2016-09-24T09:28:41.506Z,69.47
2016-09-24T09:29:41.181Z,68.15
2016-09-24T09:30:41.497Z,65.92
2016-09-24T09:31:41.172Z,63.26
2016-09-24T09:32:41.486Z,63.68
2016-09-24T09:33:41.174Z,63.42
2016-09-24T09:34:41.487Z,61.9
2016-09-24T09:35:41.487Z,61.54
2016-09-24T09:36:41.168Z,61.18
2016-09-24T09:37:41.483Z,61.01
2016-09-24T09:38:41.487Z,62.35
2016-09-24T09:39:41.473Z,62.16
2016-09-24T09:40:41.476Z,61.8
2016-09-24T09:41:41.475Z,61.7
2016-09-24T09:42:41.477Z,61.8
2016-09-24T09:43:41.476Z,60.85
2016-09-24T09:44:41.160Z,60.88
2016-09-24T09:45:41.150Z,61.08
2016-09-24T09:46:41.159Z,62.22
2016-09-24T09:47:41.457Z,62.9
2016-09-24T09:48:41.468Z,64.49
2016-09-24T09:49:41.458Z,64.04
2016-09-24T09:50:41.136Z,62.81
2016-09-24T09:51:41.451Z,62.93
2016-09-24T09:52:41.125Z,62.57
2016-09-24T09:53:41.127Z,62.26
2016-09-24T09:54:41.126Z,63.45
2016-09-24T09:55:41.451Z,64.26
2016-09-24T09:56:41.120Z,65.47
2016-09-24T09:57:41.450Z,64.59
2016-09-24T09:58:41.441Z,62.71
2016-09-24T09:59:41.120Z,62.38
2016-09-24T10:00:41.436Z,61.24
2016-09-24T10:01:41.419Z,60.39
2016-09-24T10:02:41.415Z,59.55
2016-09-24T10:03:41.427Z,59.16
2016-09-24T10:04:41.417Z,59.58
2016-09-24T10:05:41.417Z,60.33
2016-09-24T10:06:41.405Z,59.45
2016-09-24T10:07:41.098Z,61.14
2016-09-24T10:08:41.089Z,61.77
2016-09-24T10:09:41.420Z,62.93
2016-09-24T10:10:41.418Z,63.55
2016-09-24T10:11:41.076Z,62.64
2016-09-24T10:12:41.092Z,63.1
2016-09-24T10:13:41.394Z,62.26
2016-09-24T10:14:41.390Z,61.34
2016-09-24T10:15:41.389Z,59.33
2016-09-24T10:16:41.064Z,60.62
2016-09-24T10:17:41.389Z,61.02
2016-09-24T10:18:41.393Z,60.08
2016-09-24T10:19:41.049Z,60.27
2016-09-24T10:20:41.364Z,60.36
2016-09-24T10:21:41.368Z,60.1
2016-09-24T10:22:41.056Z,58.77
2016-09-24T10:23:41.348Z,58.6
2016-09-24T10:24:41.353Z,60.05
2016-09-24T10:25:41.031Z,60.41
2016-09-24T10:26:41.350Z,59.59
2016-09-24T10:27:41.339Z,58.22
2016-09-24T10:28:41.321Z,57.5
2016-09-24T10:29:41.326Z,56.07
2016-09-24T10:30:41.324Z,55.22
2016-09-24T10:31:41.329Z,55.44
2016-09-24T10:32:41.325Z,55.24
2016-09-24T10:33:40.985Z,57.07
2016-09-24T10:34:40.991Z,57.54
2016-09-24T10:35:41.306Z,56.89
2016-09-24T10:36:40.976Z,56.92
2016-09-24T10:37:41.290Z,57.67
2016-09-24T10:38:41.289Z,59.53
2016-09-24T10:39:41.288Z,58.95
2016-09-24T10:40:41.279Z,58.69
2016-09-24T10:41:41.278Z,58.59
2016-09-24T10:42:41.265Z,57.64
2016-09-24T10:43:41.276Z,57.47
2016-09-24T10:44:41.276Z,57.28
2016-09-24T10:45:40.936Z,58.03
2016-09-24T10:46:41.265Z,58.2
2016-09-24T10:47:41.249Z,57.09
2016-09-24T10:48:41.249Z,56.01
2016-09-24T10:49:41.233Z,56.43
2016-09-24T10:50:40.915Z,56.04
2016-09-24T10:51:41.230Z,56.37
2016-09-24T10:52:41.263Z,56.3
2016-09-24T10:53:40.895Z,56.43
2016-09-24T10:54:41.219Z,55.09
2016-09-24T10:55:40.898Z,55.29
2016-09-24T10:56:41.204Z,56.14
2016-09-24T10:57:40.883Z,55.55
2016-09-24T10:58:41.239Z,54.99
2016-09-24T10:59:40.865Z,56.14
2016-09-24T11:00:41.220Z,56.37
2016-09-24T11:01:40.865Z,56.11
2016-09-24T11:02:40.854Z,55.33
2016-09-24T11:03:41.170Z,56.5
2016-09-24T11:04:40.836Z,57.42
2016-09-24T11:05:40.839Z,56.37
2016-09-24T11:06:41.155Z,56.04
2016-09-24T11:07:40.819Z,54.7
2016-09-24T11:08:41.141Z,54.44
2016-09-24T11:09:41.125Z,54.24
2016-09-24T11:10:40.805Z,53.39
2016-09-24T11:11:41.124Z,53.22
2016-09-24T11:12:41.112Z,52.95
2016-09-24T11:13:41.107Z,52.56
2016-09-24T11:14:40.774Z,52.56
2016-09-24T11:15:41.094Z,52.47
2016-09-24T11:16:41.094Z,52.1
2016-09-24T11:17:41.089Z,52.22
2016-09-24T11:18:40.753Z,52.29
2016-09-24T11:19:40.751Z,52.95
2016-09-24T11:20:41.063Z,54.46
2016-09-24T11:21:41.067Z,55.89
2016-09-24T11:22:40.734Z,55.16
2016-09-24T11:23:41.063Z,55.55
2016-09-24T11:24:40.726Z,55.33
2016-09-24T11:25:40.734Z,56.01
2016-09-24T11:26:41.042Z,56.84
2016-09-24T11:27:40.709Z,57.59
2016-09-24T11:28:41.036Z,58.36
2016-09-24T11:29:40.693Z,59.08
2016-09-24T11:30:41.014Z,57.85
2016-09-24T11:31:41.004Z,57.81
2016-09-24T11:32:41.004Z,57.68
2016-09-24T11:33:40.713Z,57.68
2016-09-24T11:34:40.972Z,56.9
2016-09-24T11:35:40.977Z,56.35
2016-09-24T11:36:40.963Z,55.13
2016-09-24T11:37:41.010Z,54.19
2016-09-24T11:38:40.964Z,53.44
2016-09-24T11:39:40.954Z,53.56
2016-09-24T11:40:40.647Z,55.29
2016-09-24T11:41:40.934Z,54.97
2016-09-24T11:42:40.616Z,55.07
2016-09-24T11:43:40.924Z,56.4
2016-09-24T11:44:40.915Z,55.52
2016-09-24T11:45:40.583Z,56.11
2016-09-24T11:46:40.585Z,55.21
2016-09-24T11:47:40.585Z,54.43
2016-09-24T11:48:40.905Z,53.97
2016-09-24T11:49:40.887Z,54.38
2016-09-24T11:50:40.564Z,53.31
2016-09-24T11:51:40.874Z,52.87
2016-09-24T11:52:40.891Z,53.83
2016-09-24T11:53:40.855Z,54.09
2016-09-24T11:54:40.839Z,54.28
2016-09-24T11:55:40.842Z,54.75
2016-09-24T11:56:40.836Z,55.3
2016-09-24T11:57:40.833Z,55.27
2016-09-24T11:58:40.569Z,55.11
2016-09-24T11:59:40.823Z,55.23
2016-09-24T12:00:40.811Z,54.91
2016-09-24T12:01:40.482Z,53.8
2016-09-24T12:02:40.862Z,54.48
2016-09-24T12:03:40.476Z,56.25
2016-09-24T12:04:40.886Z,56.87
2016-09-24T12:05:40.467Z,56.03
2016-09-24T12:06:40.829Z,54.89
2016-09-24T12:07:40.775Z,54.06
2016-09-24T12:08:40.810Z,53.97
2016-09-24T12:09:40.431Z,54.52
2016-09-24T12:10:40.853Z,54.72
2016-09-24T12:11:40.766Z,55.08
2016-09-24T12:12:40.424Z,54.72
2016-09-24T12:13:40.783Z,54.91
2016-09-24T12:14:40.735Z,56.41
2016-09-24T12:15:40.759Z,56.75
2016-09-24T12:16:40.715Z,56.49
2016-09-24T12:17:40.376Z,56.29
2016-09-24T12:18:40.693Z,56.49
2016-09-24T12:19:40.697Z,56.85
2016-09-24T12:20:40.676Z,57.14
2016-09-24T12:21:40.666Z,57.98
2016-09-24T12:22:40.667Z,58.83
2016-09-24T12:23:40.665Z,57.6
2016-09-24T12:24:40.325Z,57.23
2016-09-24T12:25:40.636Z,57.46
2016-09-24T12:26:40.683Z,57.5
2016-09-24T12:27:40.637Z,57.69
2016-09-24T12:28:40.621Z,57.14
2016-09-24T12:29:40.612Z,56.07
2016-09-24T12:30:40.283Z,56.32
2016-09-24T12:31:40.607Z,55.08
2016-09-24T12:32:40.597Z,54.23
2016-09-24T12:33:40.589Z,53.16
2016-09-24T12:34:40.581Z,52.89
2016-09-24T12:35:40.562Z,52.31
2016-09-24T12:36:40.565Z,52.04
2016-09-24T12:37:40.232Z,51.46
2016-09-24T12:38:40.554Z,51.17
2016-09-24T12:39:40.534Z,51.19
2016-09-24T12:40:40.536Z,51.39
2016-09-24T12:41:40.529Z,50.82
2016-09-24T12:42:40.197Z,50.9
2016-09-24T12:43:40.195Z,51.09
2016-09-24T12:44:40.180Z,50.97
2016-09-24T12:45:40.506Z,51.63
2016-09-24T12:46:40.173Z,51.46
2016-09-24T12:47:40.571Z,51.75
2016-09-24T12:48:40.154Z,52.02
2016-09-24T12:49:40.236Z,52.48
2016-09-24T12:50:40.468Z,52.77
2016-09-24T12:51:40.172Z,53.62
2016-09-24T12:52:40.468Z,53.04
2016-09-24T12:53:40.532Z,52.7
2016-09-24T12:54:40.428Z,51.26